Briefing drone pour Chambery (LFLB)

Rechercher une autre localisation

Conditions de vol :


Nous sommes le : Mercredi 08 février 2023
Il est 22:39 UTC (23:39 LT)

Lever de soleil : 06:22 UTC (07:22 LT)
Coucher de soleil : 17:18 UTC (18:18 LT)

Météo

L'essentiel des conditions de vol

VIGILANCE MÉTÉO FRANCE - Savoie (73)
Pas de vigilances particulieres
METAR de LFLB
LFLB 082230Z AUTO VRB03KT 7000 NSC M03/M04 Q1032

Date d'émission: 08/02/2023
Heure d'émission: 22:30 UTC
Vent: Variable 3 KT (6 km/h)
Visibilité horizontale: 7000 m
Plafond : Pas de nuages significatifs (NSC)
Température: -3 °C
Point de rosée: -4 °C
Humidité: 93%
Pression (QNH): 1032 hPa
TAF de LFLB
LFLB 082014Z 0820/0915 CNL

Conditions prévues :

Heure d'émission : Bulletin éffectué le 08 à 20:00 UTC
Prévision : Valide du 08 a 20:00 UTC au 09 a 15:00 UTC
Nuages : à 0ft (0 m)
WEBCAM POUR CHAMBERY

Réglementation

Voler en sécurité

CARTES AERONAUTIQUE 1/500.000
CARTE AZBA (Reseau basse altitude)
CARTES VAC (LFLB)
SUP AIP




Chargement des AIP...
NOTAM (CHAMBERY + Terrain à proximité / FIR )




Chargement des NOTAMS...
CONTACT PREFECTURE 73
Savoie (73) : [email protected]


Avertissement : Les données mises à disposition sont indicatives. Oxygène Drone ne pourra être tenu responsable de dégâts causés aux biens et aux personnes.